Ana Sayfa
METAR-TAF:

METAR-TAF

Havaalanları :

Zonguldak Havalimanı

Zonguldak, Türkiye

Enlem: 41-27N, Boylam: 031-48E, yükseklik: 136 m

Güncel hava durumu gözlemi

Rapor saat 13:50 UTC de 4 saat ve 20 dakika önce yapıldı.
Rüzgar kuzey/kuzeybatıdan 3 kt, batı/kuzeybatı ve kuzey arasında değişken
Sıcaklık 20°C
Nem 78%
Basınç 1020 hPa
Görüş mesafesi 10 km veya daha fazla
3000 ft yükseklikte az bulutlu
8000 ft yükseklikte parçalı çok bulutlu

METAR: LTAS 161350Z 33003KT 290V010 9999 FEW030 BKN080 20/16 Q1020

Saat: 21:10 (18:10 UTC)

Tahmin

Rapor saat 13:40 UTC de 4 saat ve 30 dakika önce yapıldı.
Ayın 16'si saat 15 UTC'den ayın 16'si saat 24 UTC'ye kadar geçerli Tahmin
Rüzgar değişken yönden 2 kt
Görüş mesafesi 10 km veya daha fazla
3500 ft yükseklikte az bulutlu
8000 ft yükseklikte parçalı çok bulutlu

TAF: LTAS 161340Z 1615/1624 VRB02KT 9999 FEW035 BKN080

4.000'den fazla havaalanı için hava durumu gözlemleri ve tahminleri (METAR ve TAF raporları).

Kullanılabilir istasyonlar harita üzerinde sarı ve kırmızı noktalarla gösterilir.

İstasyonun adını görmek için fareyi noktanın üzerinde gezdirin.

Sonrasında hava gözlem ve tahminlerini görmek için tıklayın.

Haritayı değiştirmek için: yaklaştırmak için siyah artı işaretli yeşil düğmeye ve uzaklaştırmak için de eksi işaretli düğmeye hızla tıklayın; bitişik haritalar için yeşil okları kullanın.


METAR-TAF: